Time;durP1;ratioP1;P1;durP2;ratioP2;P2;SDS_P1;SDS_P2;PMS_P1;PMS_P2;Temp;Humidity;BMP_temperature;BMP_pressure;BME280_temperature;BME280_humidity;BME280_pressure;Samples;Min_cycle;Max_cycle;Signal;HPM_P1;HPM_P2
2022/11/12 00:00:42;;;;;;;33.37;22.17;;;10.40;90.70;;;;;;4995971;28;20675;-88
2022/11/12 00:03:08;;;;;;;29.83;21.53;;;10.30;91.00;;;;;;4994505;28;20186;-89
2022/11/12 00:05:34;;;;;;;37.63;23.43;;;10.30;91.10;;;;;;4994492;28;20308;-89
2022/11/12 00:08:00;;;;;;;31.73;21.33;;;10.30;91.20;;;;;;4994570;28;20289;-89
2022/11/12 00:10:26;;;;;;;28.50;21.30;;;10.30;91.10;;;;;;4994418;28;20205;-90
2022/11/12 00:12:51;;;;;;;39.30;23.77;;;10.30;91.20;;;;;;4995891;28;20206;-90
2022/11/12 00:15:17;;;;;;;33.47;24.33;;;10.20;91.20;;;;;;4994722;28;20210;-89
2022/11/12 00:17:42;;;;;;;32.17;22.07;;;10.20;91.20;;;;;;4994212;28;20643;-89
2022/11/12 00:20:08;;;;;;;32.40;21.40;;;10.20;91.10;;;;;;4994376;28;20626;-89
2022/11/12 00:22:34;;;;;;;33.60;22.00;;;10.10;91.10;;;;;;4994404;28;20186;-89
2022/11/12 00:25:00;;;;;;;38.37;22.73;;;10.10;91.10;;;;;;4994762;28;20202;-89
2022/11/12 00:27:25;;;;;;;32.93;22.67;;;10.00;91.00;;;;;;4994080;28;20178;-90
2022/11/12 00:29:51;;;;;;;31.90;21.17;;;10.00;91.00;;;;;;4993915;28;20181;-89
2022/11/12 00:32:17;;;;;;;35.83;21.60;;;10.00;91.00;;;;;;4995228;28;20171;-89
2022/11/12 00:34:42;;;;;;;26.20;19.10;;;9.90;90.90;;;;;;4994658;28;20190;-89
2022/11/12 00:37:08;;;;;;;30.60;20.60;;;9.90;90.90;;;;;;4994667;28;20184;-89
2022/11/12 00:39:33;;;;;;;30.50;20.07;;;10.00;90.90;;;;;;4995046;28;20186;-89
2022/11/12 00:41:59;;;;;;;29.90;20.53;;;9.90;90.80;;;;;;4993730;28;20228;-89
2022/11/12 00:44:25;;;;;;;26.90;19.50;;;9.90;90.80;;;;;;4993821;28;20209;-89
2022/11/12 00:46:50;;;;;;;29.73;19.20;;;9.90;90.70;;;;;;4993670;28;20297;-89
2022/11/12 00:49:16;;;;;;;33.43;20.27;;;9.90;90.70;;;;;;4993610;28;20592;-90
2022/11/12 00:51:42;;;;;;;30.03;19.33;;;9.90;90.70;;;;;;4993472;28;20178;-90
2022/11/12 00:54:07;;;;;;;30.10;20.10;;;9.90;90.60;;;;;;4993477;28;20658;-90
2022/11/12 00:56:33;;;;;;;27.30;18.93;;;10.00;90.50;;;;;;4993405;28;20685;-89
2022/11/12 00:58:59;;;;;;;28.93;18.90;;;10.00;90.30;;;;;;4994708;28;20548;-89
2022/11/12 01:01:25;;;;;;;25.70;19.27;;;10.00;90.20;;;;;;4993358;28;20565;-89
2022/11/12 01:03:51;;;;;;;26.47;18.97;;;10.00;90.30;;;;;;4993723;28;20185;-90
2022/11/12 01:06:19;;;;;;;27.67;18.20;;;10.10;90.20;;;;;;4994234;28;20820;-88
2022/11/12 01:08:47;;;;;;;29.27;18.80;;;10.10;90.10;;;;;;4993408;28;20229;-90
2022/11/12 01:11:18;;;;;;;26.10;16.97;;;10.10;89.60;;;;;;4994383;28;20166;-89
2022/11/12 01:13:46;;;;;;;24.93;17.20;;;10.10;89.40;;;;;;4994396;28;20169;-90
2022/11/12 01:16:14;;;;;;;22.47;15.97;;;10.00;89.30;;;;;;4994265;28;20571;-90
2022/11/12 01:18:41;;;;;;;22.13;15.60;;;10.00;89.10;;;;;;4993096;28;20178;-89
2022/11/12 01:21:07;;;;;;;23.57;16.77;;;10.00;89.00;;;;;;4993424;28;20184;-89
2022/11/12 01:23:37;;;;;;;23.27;16.30;;;10.00;88.90;;;;;;4994195;28;20249;-89
2022/11/12 01:26:12;;;;;;;27.50;15.63;;;10.00;88.80;;;;;;4994305;28;20292;-89
2022/11/12 01:28:38;;;;;;;22.97;16.07;;;10.10;88.70;;;;;;4993261;28;20173;-89
2022/11/12 01:31:14;;;;;;;21.70;15.50;;;10.00;88.60;;;;;;4993574;28;20573;-89
2022/11/12 01:33:47;;;;;;;25.47;16.13;;;10.00;88.70;;;;;;4992903;28;20582;-89
2022/11/12 01:36:14;;;;;;;22.03;14.83;;;10.00;88.70;;;;;;4993031;28;20194;-89
2022/11/12 01:38:41;;;;;;;23.93;15.27;;;10.00;88.70;;;;;;4992892;28;20192;-90
2022/11/12 01:41:09;;;;;;;23.10;15.90;;;10.00;88.80;;;;;;4992968;28;20269;-89
2022/11/12 01:43:35;;;;;;;25.07;15.87;;;10.00;88.90;;;;;;4992717;28;20182;-89
2022/11/12 01:46:15;;;;;;;24.83;16.53;;;10.10;88.70;;;;;;4992706;28;20633;-89
2022/11/12 01:48:48;;;;;;;22.50;15.73;;;10.00;88.60;;;;;;4992741;28;20316;-89
2022/11/12 01:51:14;;;;;;;22.10;15.10;;;10.00;88.50;;;;;;4993347;28;20225;-89
2022/11/12 01:53:46;;;;;;;26.17;16.00;;;10.00;88.30;;;;;;4992634;28;20272;-89
2022/11/12 01:56:13;;;;;;;28.07;16.97;;;10.00;88.20;;;;;;4992607;28;20206;-88
2022/11/12 01:58:40;;;;;;;20.63;14.63;;;10.00;88.20;;;;;;4992705;28;20215;-89
2022/11/12 02:01:05;;;;;;;21.43;15.33;;;9.90;88.40;;;;;;4992770;28;20185;-89
2022/11/12 02:03:31;;;;;;;26.80;16.70;;;9.90;88.40;;;;;;4992578;28;20555;-89
2022/11/12 02:06:06;;;;;;;21.20;15.90;;;9.80;88.40;;;;;;4992751;28;20213;-89
2022/11/12 02:08:33;;;;;;;27.37;16.50;;;9.80;88.40;;;;;;4994280;28;20203;-89
2022/11/12 02:11:11;;;;;;;25.67;18.87;;;9.70;88.80;;;;;;4992447;28;20627;-89
2022/11/12 02:16:20;;;;;;;25.00;15.93;;;9.40;89.10;;;;;;4994191;28;20170;-89
2022/11/12 02:18:46;;;;;;;26.57;16.10;;;9.40;89.20;;;;;;4992400;28;20190;-89
2022/11/12 02:21:11;;;;;;;24.23;16.43;;;9.30;89.20;;;;;;4993928;28;20182;-89
2022/11/12 02:23:37;;;;;;;23.27;17.10;;;9.30;89.30;;;;;;4992402;28;20268;-89
2022/11/12 02:26:03;;;;;;;28.23;16.50;;;9.10;89.50;;;;;;4992588;28;20215;-89
2022/11/12 02:28:30;;;;;;;27.37;16.10;;;9.00;89.80;;;;;;4992385;28;20554;-89
2022/11/12 02:30:55;;;;;;;26.93;16.93;;;8.90;90.00;;;;;;4992733;28;20178;-89
2022/11/12 02:33:21;;;;;;;24.73;16.90;;;8.80;90.20;;;;;;4992331;28;20665;-89
2022/11/12 02:35:47;;;;;;;28.73;18.00;;;8.70;90.30;;;;;;4992342;28;20286;-89
2022/11/12 02:38:12;;;;;;;22.47;17.70;;;8.70;90.40;;;;;;4992249;28;20186;-89
2022/11/12 02:40:38;;;;;;;23.83;17.17;;;8.70;90.40;;;;;;4993368;28;20186;-89
2022/11/12 02:43:04;;;;;;;26.20;17.80;;;8.70;90.10;;;;;;4992251;28;20178;-89
2022/11/12 02:45:30;;;;;;;23.63;17.60;;;8.50;90.30;;;;;;4995020;28;20291;-89
2022/11/12 02:47:56;;;;;;;23.33;17.43;;;8.30;90.60;;;;;;4996666;28;20178;-89
2022/11/12 02:50:22;;;;;;;25.00;19.13;;;8.30;90.70;;;;;;4996712;28;20181;-89
2022/11/12 02:52:48;;;;;;;21.27;18.23;;;8.30;90.70;;;;;;4996743;28;20186;-89
2022/11/12 02:55:13;;;;;;;26.10;18.40;;;8.30;90.80;;;;;;4995924;28;20601;-90
2022/11/12 02:57:39;;;;;;;28.03;18.90;;;8.30;90.90;;;;;;4995751;28;20634;-89
2022/11/12 03:00:08;;;;;;;21.87;17.47;;;8.50;90.80;;;;;;4996095;28;20627;-89
2022/11/12 03:02:41;;;;;;;22.97;17.10;;;8.30;90.50;;;;;;4995560;28;20265;-89
2022/11/12 03:05:10;;;;;;;28.33;18.00;;;8.20;90.50;;;;;;4995473;28;20205;-89
2022/11/12 03:07:35;;;;;;;26.70;17.63;;;8.10;90.80;;;;;;4997070;28;20170;-89
2022/11/12 03:10:01;;;;;;;25.13;18.57;;;8.00;91.10;;;;;;4995579;28;20170;-89
2022/11/12 03:12:30;;;;;;;25.70;19.17;;;8.00;91.10;;;;;;4995494;28;20635;-89
2022/11/12 03:14:55;;;;;;;28.23;18.73;;;7.90;91.20;;;;;;4996531;28;20198;-89
2022/11/12 03:17:21;;;;;;;22.93;18.87;;;8.00;91.20;;;;;;4995946;28;20174;-89
2022/11/12 03:19:46;;;;;;;28.27;18.67;;;8.00;91.30;;;;;;4995308;28;20281;-89
2022/11/12 03:22:12;;;;;;;29.97;19.97;;;8.00;91.00;;;;;;4995331;28;20642;-89
2022/11/12 03:24:37;;;;;;;24.07;18.60;;;7.90;91.00;;;;;;4995541;28;20282;-89
2022/11/12 03:27:03;;;;;;;24.27;19.37;;;7.70;91.10;;;;;;4995392;28;20210;-89
2022/11/12 03:29:28;;;;;;;26.87;19.60;;;7.70;91.20;;;;;;4995187;28;20175;-89
2022/11/12 03:31:54;;;;;;;26.10;19.23;;;7.60;91.40;;;;;;4995184;28;20206;-89
2022/11/12 03:34:19;;;;;;;28.03;18.70;;;7.60;91.50;;;;;;4995072;28;20273;-89
2022/11/12 03:36:45;;;;;;;33.57;18.97;;;7.50;91.50;;;;;;4995830;28;20186;-89
2022/11/12 03:39:10;;;;;;;26.43;19.17;;;7.40;91.60;;;;;;4996173;28;20232;-89
2022/11/12 03:41:36;;;;;;;23.87;18.23;;;7.50;91.70;;;;;;4994927;28;20599;-89
2022/11/12 03:44:01;;;;;;;30.40;23.00;;;7.50;91.60;;;;;;4994855;28;20705;-89
2022/11/12 03:46:27;;;;;;;30.90;19.93;;;7.30;91.60;;;;;;4994788;28;20202;-89
2022/11/12 03:48:52;;;;;;;26.73;20.20;;;7.30;91.80;;;;;;4994752;28;20657;-89
2022/11/12 03:51:20;;;;;;;29.83;20.47;;;7.20;91.90;;;;;;4994664;28;20174;-89
2022/11/12 03:53:45;;;;;;;25.10;19.90;;;7.20;91.80;;;;;;4994637;28;20181;-89
2022/11/12 03:56:11;;;;;;;26.73;20.53;;;7.10;92.00;;;;;;4994198;28;20202;-89
2022/11/12 03:58:36;;;;;;;25.67;20.10;;;7.10;92.00;;;;;;4994565;28;20216;-89
2022/11/12 04:01:02;;;;;;;30.93;20.73;;;7.20;92.10;;;;;;4994612;28;20177;-89
2022/11/12 04:03:28;;;;;;;27.97;19.80;;;7.30;92.10;;;;;;4995487;28;20178;-89
2022/11/12 04:08:54;;;;;;;29.47;19.27;;;7.10;91.80;;;;;;4954908;28;20238;-89
2022/11/12 04:11:19;;;;;;;22.93;18.87;;;7.10;92.00;;;;;;4998716;28;20639;-89
2022/11/12 04:13:46;;;;;;;30.43;18.60;;;7.10;91.90;;;;;;4995639;28;20170;-89
2022/11/12 04:21:53;;;;;;;23.23;16.83;;;7.00;91.50;;;;;;4995734;28;20275;-89
2022/11/12 04:27:17;;;;;;;24.43;15.30;;;7.10;91.30;;;;;;4995588;28;20200;-89
2022/11/12 04:32:29;;;;;;;17.40;14.80;;;7.00;91.00;;;;;;4996056;28;20629;-89
2022/11/12 04:34:55;;;;;;;24.33;16.17;;;7.00;91.00;;;;;;4994074;28;20198;-89
2022/11/12 04:37:23;;;;;;;21.37;16.33;;;6.80;90.60;;;;;;4994083;28;20236;-89
2022/11/12 04:39:49;;;;;;;22.07;16.10;;;6.70;90.80;;;;;;4994224;28;20209;-90
2022/11/12 04:44:59;;;;;;;20.70;15.70;;;6.70;90.40;;;;;;4995183;28;20205;-89
2022/11/12 04:47:26;;;;;;;20.40;15.80;;;6.80;90.60;;;;;;4994460;28;20633;-89
2022/11/12 04:49:52;;;;;;;29.70;17.10;;;6.80;90.70;;;;;;4993687;28;20182;-89
2022/11/12 04:52:17;;;;;;;20.23;15.53;;;6.80;90.50;;;;;;4993942;28;20186;-89
2022/11/12 04:54:43;;;;;;;20.73;16.30;;;6.90;90.60;;;;;;4993815;28;20198;-89
2022/11/12 04:57:08;;;;;;;21.40;15.93;;;6.90;90.60;;;;;;4993461;28;20182;-89
2022/11/12 04:59:34;;;;;;;20.97;17.73;;;6.80;90.40;;;;;;4993454;28;20193;-89
2022/11/12 05:02:00;;;;;;;30.43;18.07;;;6.80;90.80;;;;;;4994267;28;20181;-90
2022/11/12 05:04:28;;;;;;;24.53;18.93;;;6.80;91.20;;;;;;4993128;28;20208;-89
2022/11/12 05:06:58;;;;;;;22.80;17.30;;;6.80;91.30;;;;;;4992692;28;20201;-89
2022/11/12 05:09:26;;;;;;;22.80;16.67;;;6.80;91.20;;;;;;4993423;28;20209;-89
2022/11/12 05:11:54;;;;;;;22.27;16.87;;;6.80;91.10;;;;;;4993246;28;20209;-89
2022/11/12 05:14:20;;;;;;;25.03;18.17;;;6.60;91.00;;;;;;4993302;28;20194;-89
2022/11/12 05:16:46;;;;;;;27.20;18.80;;;6.50;91.50;;;;;;4993237;28;20210;-89
2022/11/12 05:19:12;;;;;;;29.97;18.53;;;6.50;91.70;;;;;;4993207;28;20228;-90
2022/11/12 05:24:22;;;;;;;30.10;17.30;;;6.40;91.50;;;;;;4994823;28;20216;-89
2022/11/12 05:26:47;;;;;;;25.37;17.13;;;6.50;91.70;;;;;;4992937;28;20210;-89
2022/11/12 05:29:13;;;;;;;17.73;15.63;;;6.50;91.60;;;;;;4994553;28;20549;-89
2022/11/12 05:31:39;;;;;;;26.63;18.87;;;6.30;91.30;;;;;;4993293;28;20178;-89
2022/11/12 05:34:04;;;;;;;24.57;16.37;;;6.30;91.20;;;;;;4992929;28;20182;-90
2022/11/12 05:36:30;;;;;;;22.63;16.30;;;6.30;91.20;;;;;;4992897;28;20188;-89
2022/11/12 05:38:55;;;;;;;19.73;16.33;;;6.30;90.90;;;;;;4993704;28;20276;-89
2022/11/12 05:41:21;;;;;;;29.30;16.80;;;6.30;91.00;;;;;;4992842;28;20182;-89
2022/11/12 05:43:46;;;;;;;28.60;18.20;;;6.30;91.00;;;;;;4993670;28;20182;-89
2022/11/12 05:46:12;;;;;;;22.20;17.33;;;6.30;91.10;;;;;;4993766;28;20559;-89
2022/11/12 05:48:38;;;;;;;20.07;15.57;;;6.30;91.20;;;;;;4993586;28;20186;-89
2022/11/12 05:51:03;;;;;;;19.40;14.53;;;6.30;91.20;;;;;;4992705;28;20178;-90
2022/11/12 05:53:29;;;;;;;20.93;14.80;;;6.20;91.00;;;;;;4993021;28;20189;-89
2022/11/12 05:56:03;;;;;;;22.80;16.43;;;6.20;91.10;;;;;;4992577;28;20706;-89
2022/11/12 05:58:30;;;;;;;19.00;15.13;;;6.20;91.00;;;;;;4992587;28;20177;-89
2022/11/12 06:00:55;;;;;;;22.20;14.57;;;6.20;91.00;;;;;;4992651;28;20178;-89
2022/11/12 06:03:21;;;;;;;19.37;15.30;;;6.20;91.00;;;;;;4994098;28;20208;-89
2022/11/12 06:05:47;;;;;;;29.40;15.83;;;6.20;90.90;;;;;;4992284;28;20218;-89
2022/11/12 06:08:12;;;;;;;26.03;16.07;;;6.10;90.80;;;;;;4992572;28;20210;-90
2022/11/12 06:10:38;;;;;;;23.97;17.43;;;6.10;91.30;;;;;;4993765;28;20698;-89
2022/11/12 06:13:03;;;;;;;27.63;17.60;;;6.00;91.40;;;;;;4992415;28;20182;-89
2022/11/12 06:15:29;;;;;;;26.13;18.00;;;6.00;91.40;;;;;;4993572;28;20660;-89
2022/11/12 06:17:55;;;;;;;26.30;19.20;;;5.90;91.80;;;;;;4992896;28;20186;-89
2022/11/12 06:20:23;;;;;;;22.90;17.57;;;5.90;92.00;;;;;;4996513;28;20245;-89
2022/11/12 06:22:49;;;;;;;25.30;17.30;;;6.00;92.10;;;;;;4996289;28;20186;-89
2022/11/12 06:25:15;;;;;;;22.77;15.43;;;5.90;92.00;;;;;;4996291;28;20209;-90
2022/11/12 06:27:41;;;;;;;28.37;17.07;;;6.00;92.10;;;;;;4997166;28;20563;-89
2022/11/12 06:30:08;;;;;;;20.83;15.17;;;6.00;92.00;;;;;;4996396;28;20197;-89
2022/11/12 06:32:34;;;;;;;21.43;15.53;;;5.90;91.90;;;;;;4996295;28;20268;-89
2022/11/12 06:35:00;;;;;;;25.77;17.33;;;5.80;91.70;;;;;;4996066;28;20240;-89
2022/11/12 06:37:25;;;;;;;25.73;17.60;;;5.90;92.00;;;;;;4996127;28;20277;-89
2022/11/12 06:39:51;;;;;;;22.93;17.10;;;6.00;92.00;;;;;;4996090;28;20182;-89
2022/11/12 06:42:17;;;;;;;24.63;17.57;;;5.90;91.80;;;;;;4996560;28;20186;-89
2022/11/12 06:44:42;;;;;;;22.63;17.90;;;5.80;92.00;;;;;;4996008;28;20666;-90
2022/11/12 06:47:09;;;;;;;22.17;17.23;;;5.70;92.10;;;;;;4995999;28;20233;-89
2022/11/12 06:49:34;;;;;;;28.53;19.30;;;5.60;92.10;;;;;;4996405;28;20174;-89
2022/11/12 06:52:00;;;;;;;23.33;17.60;;;5.50;92.20;;;;;;4997095;28;20177;-89
2022/11/12 06:54:25;;;;;;;23.00;18.70;;;5.60;92.30;;;;;;4996989;28;20201;-90
2022/11/12 06:56:51;;;;;;;22.40;18.30;;;5.50;92.20;;;;;;4996923;28;20181;-89
2022/11/12 06:59:17;;;;;;;24.07;19.53;;;5.50;92.30;;;;;;4997008;28;20178;-89
2022/11/12 07:01:42;;;;;;;21.40;18.27;;;5.50;92.50;;;;;;4995927;28;20178;-89
2022/11/12 07:04:09;;;;;;;23.00;18.07;;;5.60;92.50;;;;;;4997136;28;20188;-89
2022/11/12 07:06:34;;;;;;;26.80;18.13;;;5.70;92.50;;;;;;4995555;28;20197;-89
2022/11/12 07:09:00;;;;;;;23.00;17.80;;;5.70;92.40;;;;;;4995596;28;20174;-89
2022/11/12 07:11:25;;;;;;;21.50;16.70;;;5.70;92.50;;;;;;4996369;28;20175;-89
2022/11/12 07:13:51;;;;;;;23.23;17.37;;;5.80;92.50;;;;;;4995869;28;20192;-89
2022/11/12 07:16:17;;;;;;;31.33;17.33;;;5.70;92.30;;;;;;4995368;28;20294;-89
2022/11/12 07:18:44;;;;;;;23.47;17.40;;;5.50;92.10;;;;;;4995583;28;20182;-89
2022/11/12 07:21:12;;;;;;;22.87;17.20;;;5.50;92.10;;;;;;4995240;28;20182;-89
2022/11/12 07:23:38;;;;;;;26.30;17.50;;;5.50;92.20;;;;;;4995194;28;20277;-89
2022/11/12 07:26:15;;;;;;;27.40;17.83;;;5.50;92.20;;;;;;4995091;28;20308;-89
2022/11/12 07:28:41;;;;;;;24.07;19.07;;;5.60;92.20;;;;;;4995285;28;20181;-89
2022/11/12 07:31:10;;;;;;;25.03;18.20;;;5.70;92.30;;;;;;4994332;28;20170;-90
2022/11/12 07:33:36;;;;;;;23.17;17.27;;;5.80;92.20;;;;;;4995163;28;20181;-89
2022/11/12 07:36:09;;;;;;;21.93;16.07;;;5.80;92.30;;;;;;4995053;28;20198;-89
2022/11/12 07:38:37;;;;;;;23.57;17.73;;;5.90;92.20;;;;;;4995151;28;20261;-89
2022/11/12 07:41:09;;;;;;;22.07;17.03;;;5.70;92.00;;;;;;4995061;28;20213;-89
2022/11/12 07:43:36;;;;;;;27.90;18.40;;;5.70;92.00;;;;;;4996200;28;20181;-89
2022/11/12 07:46:13;;;;;;;28.33;19.73;;;5.70;92.10;;;;;;4994646;28;20584;-90
2022/11/12 07:48:40;;;;;;;26.20;19.30;;;5.70;92.20;;;;;;4994954;28;20630;-89
2022/11/12 07:51:15;;;;;;;29.27;19.97;;;5.70;92.30;;;;;;4996397;28;20309;-90
2022/11/12 07:53:42;;;;;;;26.63;21.60;;;5.70;92.40;;;;;;4995116;28;20642;-87
2022/11/12 07:56:11;;;;;;;26.80;20.70;;;5.70;92.50;;;;;;4994635;28;20198;-88
2022/11/12 07:58:36;;;;;;;29.70;21.50;;;5.70;92.50;;;;;;4994629;28;20650;-88
2022/11/12 08:01:31;;;;;;;28.50;20.13;;;5.80;92.60;;;;;;4994723;28;20185;-88
2022/11/12 08:03:58;;;;;;;28.30;20.70;;;5.80;92.60;;;;;;4995735;28;20201;-88
2022/11/12 08:06:24;;;;;;;30.03;22.70;;;5.80;92.60;;;;;;4994352;28;20305;-86
2022/11/12 08:08:53;;;;;;;28.17;22.67;;;5.80;92.60;;;;;;4994672;28;20202;-86
2022/11/12 08:11:19;;;;;;;28.17;22.97;;;5.80;92.70;;;;;;4994680;28;20203;-86
2022/11/12 08:13:45;;;;;;;32.47;22.53;;;5.90;92.70;;;;;;4995875;28;20166;-87
2022/11/12 08:16:11;;;;;;;28.47;22.93;;;5.90;92.80;;;;;;4995414;28;20194;-87
2022/11/12 08:18:37;;;;;;;33.60;24.20;;;6.00;92.80;;;;;;4994314;28;20636;-89
2022/11/12 08:21:05;;;;;;;26.80;22.20;;;6.10;92.80;;;;;;4995849;28;20662;-87
2022/11/12 08:23:31;;;;;;;28.43;23.47;;;6.10;92.80;;;;;;4995445;28;20178;-89
2022/11/12 08:26:01;;;;;;;39.93;23.13;;;6.10;92.70;;;;;;4994006;28;20645;-89
2022/11/12 08:28:32;;;;;;;31.40;24.13;;;6.20;92.80;;;;;;4994215;28;20179;-89
2022/11/12 08:31:02;;;;;;;32.40;22.30;;;6.30;92.70;;;;;;4994100;28;20232;-89
2022/11/12 08:33:28;;;;;;;31.43;24.50;;;6.30;92.70;;;;;;4994205;28;20220;-89
2022/11/12 08:35:54;;;;;;;30.90;22.53;;;6.30;92.70;;;;;;4994500;28;20221;-89
2022/11/12 08:38:19;;;;;;;26.50;22.93;;;6.40;92.70;;;;;;4993979;28;20182;-89
2022/11/12 08:40:45;;;;;;;28.17;23.40;;;6.50;92.70;;;;;;4993917;28;20170;-89
2022/11/12 08:43:11;;;;;;;27.53;22.70;;;6.50;92.60;;;;;;4993808;28;20265;-89
2022/11/12 08:45:39;;;;;;;27.53;22.70;;;6.50;92.50;;;;;;4993951;28;20206;-89
2022/11/12 08:48:07;;;;;;;29.87;23.00;;;6.60;92.50;;;;;;4993678;28;20197;-89
2022/11/12 08:50:34;;;;;;;28.60;22.77;;;6.70;92.40;;;;;;4993676;28;20178;-89
2022/11/12 08:53:05;;;;;;;26.77;22.53;;;6.70;92.40;;;;;;4993708;28;20178;-89
2022/11/12 08:55:32;;;;;;;29.20;22.33;;;6.80;92.20;;;;;;4994352;28;20229;-89
2022/11/12 08:58:00;;;;;;;26.97;22.40;;;6.80;92.10;;;;;;4993835;28;20670;-89
2022/11/12 09:00:31;;;;;;;29.50;22.83;;;6.90;92.10;;;;;;4993498;28;20197;-89
2022/11/12 09:03:01;;;;;;;28.57;22.10;;;7.00;92.00;;;;;;4993865;28;20639;-89
2022/11/12 09:05:28;;;;;;;24.73;22.00;;;7.10;92.00;;;;;;4993174;28;20216;-88
2022/11/12 09:08:01;;;;;;;28.73;22.23;;;7.10;91.90;;;;;;4993358;28;20178;-88
2022/11/12 09:10:27;;;;;;;33.00;24.70;;;7.30;91.90;;;;;;4993633;28;20177;-88
2022/11/12 09:12:53;;;;;;;26.63;21.87;;;7.40;91.60;;;;;;4993263;28;20666;-88
2022/11/12 09:15:21;;;;;;;28.90;21.97;;;7.40;91.40;;;;;;4993475;28;20193;-89
2022/11/12 09:17:46;;;;;;;34.57;23.60;;;7.50;91.30;;;;;;4994414;28;20215;-89
2022/11/12 09:20:12;;;;;;;24.83;21.47;;;7.60;91.30;;;;;;4993433;28;20178;-88
2022/11/12 09:22:37;;;;;;;30.77;22.80;;;7.60;91.20;;;;;;4993447;28;20212;-88
2022/11/12 09:25:03;;;;;;;34.17;23.87;;;7.70;91.10;;;;;;4994447;28;20198;-89
2022/11/12 09:27:29;;;;;;;23.17;20.67;;;7.80;91.00;;;;;;4992942;28;20202;-89
2022/11/12 09:29:55;;;;;;;27.00;20.93;;;7.90;90.90;;;;;;4993006;28;20182;-88
2022/11/12 09:32:20;;;;;;;24.47;20.37;;;7.90;90.70;;;;;;4993016;28;20181;-88
2022/11/12 09:34:46;;;;;;;28.77;21.23;;;8.10;90.50;;;;;;4992780;28;20575;-89
2022/11/12 09:37:11;;;;;;;27.77;21.20;;;8.20;90.20;;;;;;4994064;28;20178;-89
2022/11/12 09:39:37;;;;;;;22.27;19.33;;;8.20;89.90;;;;;;4994025;28;20190;-89
2022/11/12 09:42:07;;;;;;;23.23;18.97;;;8.30;89.70;;;;;;4992776;28;20642;-89
2022/11/12 09:44:35;;;;;;;24.70;19.30;;;8.50;89.50;;;;;;4992954;28;20697;-88
2022/11/12 09:47:28;;;;;;;24.20;18.83;;;8.60;89.40;;;;;;4992667;28;20202;-89
2022/11/12 09:50:20;;;;;;;21.97;17.90;;;8.70;89.10;;;;;;4993994;28;20170;-89
2022/11/12 09:52:48;;;;;;;24.73;18.87;;;8.70;88.90;;;;;;4992247;28;20182;-90
2022/11/12 09:55:21;;;;;;;26.50;19.03;;;8.90;88.90;;;;;;4992669;28;20206;-89
2022/11/12 09:57:50;;;;;;;25.63;19.33;;;9.00;88.70;;;;;;4992680;28;20548;-89
2022/11/12 10:00:20;;;;;;;23.47;18.43;;;9.10;88.20;;;;;;4993014;28;20201;-87
2022/11/12 10:03:05;;;;;;;22.20;18.00;;;9.20;88.10;;;;;;4992905;28;20558;-89
2022/11/12 10:05:54;;;;;;;22.40;18.63;;;9.30;87.90;;;;;;4992456;28;20213;-88
2022/11/12 10:08:33;;;;;;;23.07;18.13;;;9.40;87.70;;;;;;4992644;28;20277;-89
2022/11/12 10:11:25;;;;;;;26.87;18.67;;;9.50;87.30;;;;;;4992604;28;20170;-89
2022/11/12 10:14:12;;;;;;;21.53;16.80;;;9.60;86.90;;;;;;4992898;28;20174;-88
2022/11/12 10:16:54;;;;;;;22.37;17.00;;;9.80;86.80;;;;;;4992582;28;20174;-88
2022/11/12 10:19:46;;;;;;;24.33;15.83;;;10.10;86.20;;;;;;4993208;28;20181;-89
2022/11/12 10:22:14;;;;;;;19.63;15.57;;;10.20;86.10;;;;;;4993365;28;20630;-89
2022/11/12 10:24:41;;;;;;;20.67;15.77;;;10.40;85.80;;;;;;4992338;28;20279;-89
2022/11/12 10:27:25;;;;;;;21.83;17.07;;;10.40;85.20;;;;;;4992468;28;20559;-90
2022/11/12 10:30:00;;;;;;;21.13;16.33;;;10.80;85.40;;;;;;4992528;28;20173;-89
2022/11/12 10:32:26;;;;;;;22.37;15.50;;;10.80;84.10;;;;;;4993952;28;20150;-90
2022/11/12 10:34:52;;;;;;;21.00;15.87;;;10.80;83.80;;;;;;4992884;28;20195;-89
2022/11/12 10:37:26;;;;;;;17.63;14.80;;;11.10;83.90;;;;;;4992281;28;20214;-89
2022/11/12 10:39:51;;;;;;;25.60;14.97;;;11.10;83.20;;;;;;4992399;28;20174;-90
2022/11/12 10:42:20;;;;;;;32.47;20.07;;;11.30;82.90;;;;;;4992709;28;20181;-90
2022/11/12 10:44:46;;;;;;;21.03;16.60;;;11.50;82.40;;;;;;4993443;28;20194;-90
2022/11/12 10:47:25;;;;;;;20.23;16.43;;;11.60;82.50;;;;;;4992916;28;20205;-89
2022/11/12 10:50:09;;;;;;;20.93;15.57;;;11.60;82.30;;;;;;4993670;28;20173;-89
2022/11/12 10:52:35;;;;;;;33.33;20.77;;;11.60;81.60;;;;;;4992290;28;20174;-89
2022/11/12 10:55:04;;;;;;;20.13;15.60;;;11.70;81.40;;;;;;4992757;28;20202;-90
2022/11/12 10:57:29;;;;;;;26.40;17.90;;;11.70;81.50;;;;;;4992127;28;20174;-91
2022/11/12 11:00:13;;;;;;;20.53;16.50;;;11.80;81.70;;;;;;4992496;28;20205;-90
2022/11/12 11:02:53;;;;;;;23.40;15.77;;;11.90;80.90;;;;;;4993409;28;20182;-90
2022/11/12 11:05:29;;;;;;;21.10;15.37;;;12.00;81.30;;;;;;4993204;28;20221;-89
2022/11/12 11:07:56;;;;;;;18.37;16.30;;;12.10;80.70;;;;;;4995877;28;20174;-89
2022/11/12 11:10:33;;;;;;;18.60;15.90;;;12.30;80.40;;;;;;4995622;28;20265;-89
2022/11/12 11:13:20;;;;;;;19.37;15.63;;;12.30;79.80;;;;;;4995567;28;20213;-89
2022/11/12 11:16:02;;;;;;;18.00;15.60;;;12.40;80.20;;;;;;4995597;28;20201;-90
2022/11/12 11:18:31;;;;;;;19.77;15.33;;;12.40;79.10;;;;;;4997363;28;20181;-88
2022/11/12 11:21:24;;;;;;;19.37;15.53;;;12.40;79.10;;;;;;4995729;28;20535;-88
2022/11/12 11:24:04;;;;;;;19.67;15.43;;;12.40;79.10;;;;;;4995939;28;20240;-89
2022/11/12 11:26:40;;;;;;;21.73;16.37;;;12.50;79.00;;;;;;4995903;28;20247;-88
2022/11/12 11:29:31;;;;;;;19.20;14.77;;;12.30;78.40;;;;;;4995447;28;20201;-89
2022/11/12 11:32:34;;;;;;;19.07;15.87;;;12.20;79.60;;;;;;4995694;28;20177;-88
2022/11/12 11:35:25;;;;;;;18.40;15.00;;;12.00;79.50;;;;;;4911212;28;20204;-89
2022/11/12 11:38:25;;;;;;;24.40;16.17;;;12.00;80.00;;;;;;4995522;28;20173;-88
2022/11/12 11:41:16;;;;;;;18.63;15.50;;;12.00;80.30;;;;;;4990865;28;20233;-90
2022/11/12 11:43:51;;;;;;;17.03;14.00;;;12.20;80.10;;;;;;4995537;28;20205;-88
2022/11/12 11:46:40;;;;;;;18.00;14.40;;;12.20;79.40;;;;;;4995189;28;20575;-89
2022/11/12 11:49:34;;;;;;;19.40;14.23;;;12.30;79.60;;;;;;4996687;28;20551;-88
2022/11/12 11:52:33;;;;;;;17.27;13.77;;;12.20;79.30;;;;;;4996792;28;20170;-89
2022/11/12 11:55:25;;;;;;;16.40;14.23;;;12.30;79.90;;;;;;4997041;28;20267;-88
2022/11/12 11:58:23;;;;;;;17.00;13.77;;;12.60;79.30;;;;;;4999366;28;20170;-88
2022/11/12 12:01:08;;;;;;;17.97;13.30;;;12.90;78.90;;;;;;4998732;28;20170;-88
2022/11/12 12:03:51;;;;;;;18.97;13.83;;;13.00;78.00;;;;;;4995981;28;20630;-88
2022/11/12 12:06:23;;;;;;;20.20;15.07;;;12.80;78.20;;;;;;4997618;28;20253;-88
2022/11/12 12:09:25;;;;;;;17.63;14.57;;;12.90;77.50;;;;;;4998084;28;20158;-88
2022/11/12 12:12:04;;;;;;;18.27;14.63;;;12.90;77.50;;;;;;4999204;28;20176;-88
2022/11/12 12:14:54;;;;;;;16.93;14.63;;;12.90;77.50;;;;;;4996004;28;20234;-89
2022/11/12 12:17:44;;;;;;;18.20;16.30;;;12.60;77.80;;;;;;4996254;28;20204;-88
2022/11/12 12:20:29;;;;;;;21.33;16.90;;;12.30;79.00;;;;;;4995735;28;20677;-88
2022/11/12 12:23:36;;;;;;;20.80;15.37;;;12.30;79.30;;;;;;4996885;28;20181;-90
2022/11/12 12:26:09;;;;;;;18.30;16.43;;;12.30;79.30;;;;;;4995929;28;20217;-90
2022/11/12 12:28:40;;;;;;;17.80;16.03;;;12.10;79.20;;;;;;4997349;28;20623;-89
2022/11/12 12:31:13;;;;;;;17.57;15.70;;;12.00;79.90;;;;;;4996825;28;20749;-90
2022/11/12 12:33:55;;;;;;;20.57;15.97;;;12.00;80.20;;;;;;4996989;28;20189;-90
2022/11/12 12:36:30;;;;;;;19.50;15.90;;;12.20;80.20;;;;;;4998296;28;20579;-89
2022/11/12 12:39:16;;;;;;;17.40;15.63;;;12.00;80.10;;;;;;4997349;28;20181;-89
2022/11/12 12:42:09;;;;;;;17.90;16.00;;;11.90;80.30;;;;;;4997901;28;20524;-89
2022/11/12 12:45:00;;;;;;;22.27;15.70;;;11.90;80.60;;;;;;4996162;28;20292;-89
2022/11/12 12:47:29;;;;;;;17.73;15.77;;;11.90;81.10;;;;;;4995311;28;20206;-89
2022/11/12 12:49:57;;;;;;;23.00;15.97;;;11.70;81.80;;;;;;4996708;28;20224;-89
2022/11/12 12:52:23;;;;;;;22.07;16.17;;;11.70;82.10;;;;;;4994978;28;20265;-89
2022/11/12 12:54:51;;;;;;;26.50;17.13;;;11.60;82.10;;;;;;4995710;28;20225;-88
2022/11/12 12:57:37;;;;;;;17.67;15.57;;;11.60;82.10;;;;;;4996449;28;20182;-89
2022/11/12 13:00:40;;;;;;;20.27;15.57;;;11.50;82.40;;;;;;4995439;28;20174;-89
2022/11/12 13:03:08;;;;;;;23.97;17.53;;;11.50;82.80;;;;;;4996212;28;20166;-89
2022/11/12 13:05:36;;;;;;;18.27;15.73;;;11.50;82.90;;;;;;4995684;28;20214;-89
2022/11/12 13:08:18;;;;;;;23.07;16.83;;;11.40;82.80;;;;;;4995107;28;20264;-89
2022/11/12 13:10:51;;;;;;;18.67;16.67;;;11.40;82.80;;;;;;4994861;28;20182;-90